x

Middle Nomad (46004) Wave Buoy

11:00am - Wed 16th Apr 2014 All times are PDT. -7 hours from GMT.

  • Sig Wave height 8.5ft
  • Peak Period 10s
  • Wind
    13mph, 18mph gusts
  • Sea Temp 46°f
  • Air Temp 47°f
  • Sea Pressure 1004.1mb
  • Middle Nomad
  • Middle Nomad

More Historic Weather Station data

Upgrade to MSW Pro to gain access to the past 30 days of data for over 8000 Wavebouys and Weather Stations around the globe.

Join Pro

Comparision Forecast

View Surf forecast
   
Wed 04/16 11:00am 8.5ft 10s 13 18 mph 1004.1mb 46f 47f
10:00am 9ft 12s 13 18 mph 1004.6mb 46f 47f
9:00am 9ft 12s 16 20 mph 1004.9mb 46f 47f
8:00am 8.5ft 12s 16 22 mph 1005.2mb 46f 47f
7:00am 8ft 11s 16 18 mph 1005.5mb 46f 47f
6:00am 8.5ft 11s 13 16 mph 1005.3mb 46f 47f
5:00am 8ft 10s 11 16 mph 1005.7mb 46f 47f
4:00am 8.5ft 12s 13 18 mph 1006mb 46f 47f
3:00am 9.5ft 12s 13 16 mph 1006.4mb 46f 47f
2:00am 9ft 11s 13 16 mph 1006.5mb 46f 47f
1:00am 9ft 12s 11 13 mph 1006.5mb 46f 47f
12:00am 8.5ft 11s 9 11 mph 1006.8mb 46f 47f
Tue 04/15 11:00pm 7.5ft 11s 7 9 mph 1007.3mb 46f 48f
10:00pm 8ft 9s 4 7 mph 1007.3mb 46f 47f
8:00pm 7ft 12s 9 11 mph 1007.7mb 46f 47f
7:00pm 8.5ft 13s 11 13 mph 1007.7mb 46f 47f
6:00pm 7.5ft 13s 13 18 mph 1007.9mb 46f 47f
5:00pm 8ft 12s 16 20 mph 1008.5mb 46f 47f
4:00pm 9.5ft 12s 18 22 mph 1009mb 46f 47f
3:00pm 10ft 14s 16 20 mph 1010mb 46f 47f
2:00pm 10ft 11s 13 18 mph 1010.7mb 46f 47f
1:00pm 10.5ft 14s 13 18 mph 1011.2mb 46f 47f
12:00pm 9ft 10s 11 13 mph 1012.2mb 46f 47f
11:00am 9ft 10s 13 18 mph 1011.9mb 46f 47f
10:00am 9ft 10s 11 13 mph 1012.3mb 46f 47f
9:00am 8ft 8s 9 11 mph 1013.1mb 46f 47f
8:00am 8ft 9s 7 9 mph 1013.6mb 46f 47f
7:00am 7.5ft 8s 9 11 mph 1013.9mb 46f 47f
6:00am 7.5ft 8s 9 11 mph 1013.9mb 46f 47f
5:00am 7.5ft 8s 16 18 mph 1014mb 46f 47f
4:00am 8.5ft 8s 13 18 mph 1014mb 46f 47f
3:00am 8ft 9s 18 22 mph 1014.1mb 46f 47f
2:00am 8ft 8s 18 22 mph 1014.7mb 46f 46f
1:00am 8ft 9s 18 20 mph 1014.8mb 46f 47f
12:00am 8ft 7s 18 22 mph 1014.8mb 46f 46f
Mon 04/14 11:00pm 8ft 7s 18 25 mph 1014.6mb 46f 48f
9:00pm 8.5ft 7s 16 20 mph 1014.6mb 46f 48f
8:00pm 8ft 7s 20 22 mph 1014.4mb 46f 48f
7:00pm 8.5ft 9s 20 27 mph 1014mb 46f 48f
6:00pm 8.5ft 11s 22 27 mph 1014mb 46f 48f
5:00pm 8.5ft 9s 20 27 mph 1013.8mb 46f 49f
4:00pm 9ft 9s 18 22 mph 1013.9mb 46f 48f
3:00pm 10ft 8s 13 18 mph 1014.6mb 46f 46f
2:00pm 10.5ft 10s 18 22 mph 1014.8mb 46f 47f
1:00pm 11ft 10s 20 27 mph 1015mb 46f 47f
12:00pm 12ft 10s 27 31 mph 1014.5mb 46f 47f
11:00am 11ft 10s 29 36 mph 1013.9mb 46f 46f
10:00am 9ft 10s 31 36 mph 1013mb 46f 46f
9:00am 8.5ft 10s 25 38 mph 1012.6mb 46f 46f
8:00am 8ft 10s 22 27 mph 1011.9mb 46f 46f
7:00am 8ft 11s 20 27 mph 1010.6mb 46f 46f
6:00am 9ft 9s 16 18 mph 1009.4mb 46f 47f
5:00am 10ft 10s 4 7 mph 1008.9mb 46f 46f
4:00am 9ft 8s 9 13 mph 1008.8mb 46f 47f
3:00am 8ft 7s 16 20 mph 1009.2mb 46f 47f
2:00am 8ft 7s 20 25 mph 1010.5mb 46f 46f
1:00am 7ft 7s 20 25 mph 1011.8mb 46f 47f
12:00am 8ft 14s 18 25 mph 1013.2mb 46f 47f
Sun 04/13 11:00pm 8ft 6s 20 25 mph 1014.3mb 46f 47f
10:00pm 7ft 6s 20 25 mph 1015mb 46f 47f
9:00pm 7ft 13s 22 27 mph 1015.9mb 46f 46f
8:00pm 7ft 13s 22 25 mph 1016.7mb 46f 46f
7:00pm 7ft 12s 20 27 mph 1017.7mb 46f 47f
6:00pm 7ft 14s 20 25 mph 1018.9mb 46f 46f
5:00pm 6.5ft 12s 20 25 mph 1019.6mb 46f 46f
4:00pm 6.5ft 10s 20 25 mph 1020.5mb 46f 46f
3:00pm 6ft 10s 18 22 mph 1021.4mb 46f 46f
2:00pm 6ft 11s 18 20 mph 1022.2mb 46f 46f
1:00pm 6.5ft 11s 18 22 mph 1022.7mb 46f 45f
12:00pm 6ft 10s 18 22 mph 1023.1mb 46f 45f
11:00am 5ft 14s 18 20 mph 1023.5mb 46f 45f
10:00am 5ft 14s 16 20 mph 1023.7mb 46f 45f
9:00am 4.5ft 14s 13 18 mph 1024.1mb 46f 45f
8:00am 4.5ft 11s 13 18 mph 1024.3mb 46f 45f
7:00am 4.5ft 14s 11 16 mph 1024.3mb 46f 45f
6:00am 4.5ft 11s 11 13 mph 1024.3mb 46f 45f
5:00am 5ft 15s 11 13 mph 1024.6mb 46f 45f
4:00am 4.5ft 14s 9 11 mph 1024.9mb 46f 45f
3:00am 4.5ft 15s 9 16 mph 1025.6mb 46f 45f
2:00am 5ft 14s 9 11 mph 1025.9mb 46f 44f
1:00am 4.5ft 14s 9 16 mph 1026.1mb 46f 44f
12:00am 5ft 14s 9 13 mph 1026.1mb 46f 44f
Sat 04/12 11:00pm 5ft 14s 9 13 mph 1026.3mb 46f 45f
10:00pm 4.5ft 14s 9 13 mph 1026.4mb 46f 44f
9:00pm 4.5ft 14s 9 13 mph 1026.3mb 46f 44f
8:00pm 5ft 15s 9 11 mph 1026.1mb 46f 45f